Pagrindinis puslapis
METAR-TAF:

METAR-TAF

Oro uostai :

Batajnica, Serbija

platuma: 44-56-07N, ilguma: 020-15-27E, Aukštis: 86 m

Dabartinis oras

Ataskaita buvo paskelbta 35 minutes, ne 22:30 UTC
Ramus vėjas
Temperatūra 4°C
Drėgmė 48%
Slėgis 1032 hPa
Matomumas 10 km arba daugiau
nėra debesų žemiau 1500 m ir nėra kamuolinių lietaus debesų

METAR: LYBT 072230Z 00000KT CAVOK 04/M06 Q1032 NOSIG

Laikas: 01:05 (23:05 UTC)

Prognozė

Ataskaita buvo paskelbta 6 valandos ir 5 minutes, ne 17:00 UTC
Prognozė galioja nuo 07 metu 18 UTC su 08 metu 18 UTC
Vėjas 8 kt iš Rytų
Matomumas 10 km arba daugiau
nėra debesų žemiau 1500 m ir nėra kamuolinių lietaus debesų

TAF: LYBT 071700Z 0718/0818 08008KT CAVOK TX19/0813Z TN03/0804Z

Orai ataskaitas ir orų prognozės (METAR, TAF).

turimą stotys yra geltonos ir raudonos taškus žemėlapyje.

Perkelti pele per norėdami pamatyti stoties vardą.

Tada spustelėkite, norėdami matyti oro stebėjimo ir prognozės.

Norėdami pakeisti žemėlapį: spustelėkite ant žalios mygtukų su juodo kryžiaus žemyn,; žalią mygtuką su brūkšneliu, jei norite nutolinti; arba žalių rodyklių gretimoms žemėlapius.


METAR-TAF: